sensor_id;sensor_type;location;lat;lon;timestamp;P1;durP1;ratioP1;P2;durP2;ratioP2
9166;SDS011;4618;48.818;9.088;2024-03-06T00:01:17;4.00;;;2.87;;
9166;SDS011;4618;48.818;9.088;2024-03-06T00:03:44;3.23;;;2.80;;
9166;SDS011;4618;48.818;9.088;2024-03-06T00:06:12;3.40;;;2.47;;
9166;SDS011;4618;48.818;9.088;2024-03-06T00:08:40;3.47;;;2.50;;
9166;SDS011;4618;48.818;9.088;2024-03-06T00:11:07;3.87;;;3.00;;
9166;SDS011;4618;48.818;9.088;2024-03-06T00:13:33;5.53;;;3.20;;
9166;SDS011;4618;48.818;9.088;2024-03-06T00:16:02;4.70;;;2.97;;
9166;SDS011;4618;48.818;9.088;2024-03-06T00:18:29;6.13;;;3.10;;
9166;SDS011;4618;48.818;9.088;2024-03-06T00:20:58;3.50;;;2.90;;
9166;SDS011;4618;48.818;9.088;2024-03-06T00:23:24;3.10;;;2.80;;
9166;SDS011;4618;48.818;9.088;2024-03-06T00:25:52;6.57;;;2.87;;
9166;SDS011;4618;48.818;9.088;2024-03-06T00:28:20;3.23;;;2.77;;
9166;SDS011;4618;48.818;9.088;2024-03-06T00:30:46;5.50;;;2.77;;
9166;SDS011;4618;48.818;9.088;2024-03-06T00:33:13;6.03;;;3.10;;
9166;SDS011;4618;48.818;9.088;2024-03-06T00:35:43;2.93;;;2.60;;
9166;SDS011;4618;48.818;9.088;2024-03-06T00:38:09;3.30;;;3.00;;
9166;SDS011;4618;48.818;9.088;2024-03-06T00:40:35;3.50;;;2.73;;
9166;SDS011;4618;48.818;9.088;2024-03-06T00:43:02;3.37;;;2.80;;
9166;SDS011;4618;48.818;9.088;2024-03-06T00:45:29;3.53;;;2.57;;
9166;SDS011;4618;48.818;9.088;2024-03-06T00:47:55;3.47;;;2.83;;
9166;SDS011;4618;48.818;9.088;2024-03-06T00:50:22;3.20;;;2.60;;
9166;SDS011;4618;48.818;9.088;2024-03-06T00:52:48;2.97;;;2.40;;
9166;SDS011;4618;48.818;9.088;2024-03-06T00:55:14;3.63;;;2.77;;
9166;SDS011;4618;48.818;9.088;2024-03-06T00:57:41;2.83;;;2.53;;
9166;SDS011;4618;48.818;9.088;2024-03-06T01:00:07;3.30;;;2.67;;
9166;SDS011;4618;48.818;9.088;2024-03-06T01:02:39;4.53;;;3.00;;
9166;SDS011;4618;48.818;9.088;2024-03-06T01:05:05;3.67;;;3.07;;
9166;SDS011;4618;48.818;9.088;2024-03-06T01:07:32;3.33;;;3.00;;
9166;SDS011;4618;48.818;9.088;2024-03-06T01:09:59;2.90;;;2.70;;
9166;SDS011;4618;48.818;9.088;2024-03-06T01:12:26;4.63;;;3.10;;
9166;SDS011;4618;48.818;9.088;2024-03-06T01:14:52;3.33;;;2.80;;
9166;SDS011;4618;48.818;9.088;2024-03-06T01:17:18;3.83;;;3.17;;
9166;SDS011;4618;48.818;9.088;2024-03-06T01:19:46;3.57;;;3.23;;
9166;SDS011;4618;48.818;9.088;2024-03-06T01:22:12;3.17;;;2.87;;
9166;SDS011;4618;48.818;9.088;2024-03-06T01:24:39;5.40;;;3.20;;
9166;SDS011;4618;48.818;9.088;2024-03-06T01:27:06;3.73;;;3.03;;
9166;SDS011;4618;48.818;9.088;2024-03-06T01:29:32;4.00;;;2.93;;
9166;SDS011;4618;48.818;9.088;2024-03-06T01:31:59;4.57;;;3.37;;
9166;SDS011;4618;48.818;9.088;2024-03-06T01:34:26;3.50;;;3.17;;
9166;SDS011;4618;48.818;9.088;2024-03-06T01:36:52;4.23;;;3.10;;
9166;SDS011;4618;48.818;9.088;2024-03-06T01:39:19;4.10;;;3.27;;
9166;SDS011;4618;48.818;9.088;2024-03-06T01:41:47;3.53;;;3.20;;
9166;SDS011;4618;48.818;9.088;2024-03-06T01:44:14;3.37;;;3.07;;
9166;SDS011;4618;48.818;9.088;2024-03-06T01:46:40;4.63;;;3.07;;
9166;SDS011;4618;48.818;9.088;2024-03-06T01:49:08;3.67;;;2.90;;
9166;SDS011;4618;48.818;9.088;2024-03-06T01:51:37;3.63;;;3.10;;
9166;SDS011;4618;48.818;9.088;2024-03-06T02:00:06;4.20;;;3.17;;
9166;SDS011;4618;48.818;9.088;2024-03-06T02:02:39;5.60;;;3.43;;
9166;SDS011;4618;48.818;9.088;2024-03-06T02:05:05;3.33;;;3.03;;
9166;SDS011;4618;48.818;9.088;2024-03-06T02:07:38;5.30;;;3.03;;
9166;SDS011;4618;48.818;9.088;2024-03-06T02:10:10;5.73;;;3.67;;
9166;SDS011;4618;48.818;9.088;2024-03-06T02:15:59;3.47;;;3.17;;
9166;SDS011;4618;48.818;9.088;2024-03-06T02:18:25;3.90;;;3.40;;
9166;SDS011;4618;48.818;9.088;2024-03-06T02:20:51;3.87;;;3.50;;
9166;SDS011;4618;48.818;9.088;2024-03-06T02:23:17;4.93;;;3.70;;
9166;SDS011;4618;48.818;9.088;2024-03-06T02:25:45;4.07;;;3.00;;
9166;SDS011;4618;48.818;9.088;2024-03-06T02:28:15;4.53;;;3.33;;
9166;SDS011;4618;48.818;9.088;2024-03-06T02:30:43;3.87;;;3.30;;
9166;SDS011;4618;48.818;9.088;2024-03-06T02:33:13;3.63;;;3.03;;
9166;SDS011;4618;48.818;9.088;2024-03-06T02:35:40;4.43;;;3.23;;
9166;SDS011;4618;48.818;9.088;2024-03-06T02:38:09;3.53;;;3.23;;
9166;SDS011;4618;48.818;9.088;2024-03-06T02:40:35;3.30;;;3.00;;
9166;SDS011;4618;48.818;9.088;2024-03-06T02:43:03;3.20;;;2.90;;
9166;SDS011;4618;48.818;9.088;2024-03-06T02:45:29;3.93;;;3.00;;
9166;SDS011;4618;48.818;9.088;2024-03-06T02:47:55;4.87;;;3.40;;
9166;SDS011;4618;48.818;9.088;2024-03-06T02:50:22;4.03;;;3.30;;
9166;SDS011;4618;48.818;9.088;2024-03-06T02:52:50;5.83;;;3.80;;
9166;SDS011;4618;48.818;9.088;2024-03-06T02:55:18;4.93;;;3.57;;
9166;SDS011;4618;48.818;9.088;2024-03-06T02:57:45;4.47;;;3.10;;
9166;SDS011;4618;48.818;9.088;2024-03-06T03:00:11;4.27;;;3.50;;
9166;SDS011;4618;48.818;9.088;2024-03-06T03:02:41;3.50;;;3.20;;
9166;SDS011;4618;48.818;9.088;2024-03-06T03:05:08;3.67;;;2.83;;
9166;SDS011;4618;48.818;9.088;2024-03-06T03:07:34;4.00;;;3.00;;
9166;SDS011;4618;48.818;9.088;2024-03-06T03:10:02;3.60;;;3.27;;
9166;SDS011;4618;48.818;9.088;2024-03-06T03:12:29;3.70;;;3.27;;
9166;SDS011;4618;48.818;9.088;2024-03-06T03:14:56;4.27;;;3.03;;
9166;SDS011;4618;48.818;9.088;2024-03-06T03:17:25;6.47;;;3.10;;
9166;SDS011;4618;48.818;9.088;2024-03-06T03:19:51;3.40;;;3.10;;
9166;SDS011;4618;48.818;9.088;2024-03-06T03:31:19;3.43;;;3.10;;
9166;SDS011;4618;48.818;9.088;2024-03-06T03:37:28;5.13;;;3.40;;
9166;SDS011;4618;48.818;9.088;2024-03-06T03:40:17;4.17;;;3.20;;
9166;SDS011;4618;48.818;9.088;2024-03-06T03:49:06;4.73;;;3.77;;
9166;SDS011;4618;48.818;9.088;2024-03-06T03:52:04;3.93;;;3.63;;
9166;SDS011;4618;48.818;9.088;2024-03-06T04:15:49;5.50;;;4.60;;
9166;SDS011;4618;48.818;9.088;2024-03-06T04:24:49;4.63;;;4.07;;
9166;SDS011;4618;48.818;9.088;2024-03-06T04:27:30;5.87;;;4.17;;
9166;SDS011;4618;48.818;9.088;2024-03-06T04:30:50;5.17;;;3.93;;
9166;SDS011;4618;48.818;9.088;2024-03-06T04:39:31;4.33;;;3.47;;
9166;SDS011;4618;48.818;9.088;2024-03-06T04:42:26;5.00;;;4.33;;
9166;SDS011;4618;48.818;9.088;2024-03-06T04:45:22;4.97;;;3.90;;
9166;SDS011;4618;48.818;9.088;2024-03-06T04:50:56;6.80;;;3.93;;
9166;SDS011;4618;48.818;9.088;2024-03-06T05:27:40;6.07;;;4.80;;
9166;SDS011;4618;48.818;9.088;2024-03-06T05:33:30;6.97;;;5.40;;
9166;SDS011;4618;48.818;9.088;2024-03-06T05:35:58;6.90;;;4.90;;
9166;SDS011;4618;48.818;9.088;2024-03-06T05:38:31;7.00;;;5.07;;
9166;SDS011;4618;48.818;9.088;2024-03-06T05:49:48;7.20;;;5.03;;
9166;SDS011;4618;48.818;9.088;2024-03-06T06:11:19;8.53;;;6.33;;
9166;SDS011;4618;48.818;9.088;2024-03-06T06:16:48;9.13;;;6.17;;
9166;SDS011;4618;48.818;9.088;2024-03-06T06:19:37;8.83;;;6.07;;
9166;SDS011;4618;48.818;9.088;2024-03-06T06:22:09;9.10;;;6.40;;
9166;SDS011;4618;48.818;9.088;2024-03-06T06:27:44;8.90;;;6.03;;
9166;SDS011;4618;48.818;9.088;2024-03-06T06:33:12;10.33;;;5.53;;
9166;SDS011;4618;48.818;9.088;2024-03-06T06:35:52;9.37;;;5.43;;
9166;SDS011;4618;48.818;9.088;2024-03-06T06:41:36;8.43;;;5.87;;
9166;SDS011;4618;48.818;9.088;2024-03-06T06:44:08;10.47;;;5.83;;
9166;SDS011;4618;48.818;9.088;2024-03-06T06:46:38;8.93;;;5.97;;
9166;SDS011;4618;48.818;9.088;2024-03-06T06:49:07;7.40;;;5.50;;
9166;SDS011;4618;48.818;9.088;2024-03-06T06:51:50;6.57;;;5.30;;
9166;SDS011;4618;48.818;9.088;2024-03-06T06:54:33;6.47;;;5.70;;
9166;SDS011;4618;48.818;9.088;2024-03-06T06:57:11;7.47;;;5.27;;
9166;SDS011;4618;48.818;9.088;2024-03-06T06:59:45;9.87;;;5.90;;
9166;SDS011;4618;48.818;9.088;2024-03-06T07:02:12;8.10;;;5.47;;
9166;SDS011;4618;48.818;9.088;2024-03-06T07:04:46;8.40;;;6.17;;
9166;SDS011;4618;48.818;9.088;2024-03-06T07:10:16;7.33;;;6.13;;
9166;SDS011;4618;48.818;9.088;2024-03-06T07:19:19;9.43;;;5.70;;
9166;SDS011;4618;48.818;9.088;2024-03-06T07:24:36;6.30;;;5.13;;
9166;SDS011;4618;48.818;9.088;2024-03-06T07:30:16;8.03;;;5.20;;
9166;SDS011;4618;48.818;9.088;2024-03-06T07:32:47;7.17;;;5.30;;
9166;SDS011;4618;48.818;9.088;2024-03-06T07:35:43;6.47;;;5.40;;
9166;SDS011;4618;48.818;9.088;2024-03-06T07:38:24;8.57;;;5.23;;
9166;SDS011;4618;48.818;9.088;2024-03-06T07:41:17;8.80;;;5.40;;
9166;SDS011;4618;48.818;9.088;2024-03-06T07:43:54;7.17;;;5.23;;
9166;SDS011;4618;48.818;9.088;2024-03-06T07:46:31;6.83;;;5.33;;
9166;SDS011;4618;48.818;9.088;2024-03-06T07:49:00;6.77;;;5.30;;
9166;SDS011;4618;48.818;9.088;2024-03-06T07:56:32;8.00;;;5.57;;
9166;SDS011;4618;48.818;9.088;2024-03-06T07:59:00;8.43;;;5.70;;
9166;SDS011;4618;48.818;9.088;2024-03-06T08:01:26;10.17;;;5.63;;
9166;SDS011;4618;48.818;9.088;2024-03-06T08:03:54;6.60;;;4.50;;
9166;SDS011;4618;48.818;9.088;2024-03-06T08:06:20;6.27;;;5.17;;
9166;SDS011;4618;48.818;9.088;2024-03-06T08:08:48;8.40;;;5.40;;
9166;SDS011;4618;48.818;9.088;2024-03-06T08:11:16;5.67;;;4.53;;
9166;SDS011;4618;48.818;9.088;2024-03-06T08:13:56;8.13;;;4.73;;
9166;SDS011;4618;48.818;9.088;2024-03-06T08:16:22;6.80;;;4.20;;
9166;SDS011;4618;48.818;9.088;2024-03-06T08:18:48;7.77;;;5.13;;
9166;SDS011;4618;48.818;9.088;2024-03-06T08:21:16;6.57;;;5.30;;
9166;SDS011;4618;48.818;9.088;2024-03-06T08:23:45;6.60;;;4.77;;
9166;SDS011;4618;48.818;9.088;2024-03-06T08:26:19;5.80;;;4.50;;
9166;SDS011;4618;48.818;9.088;2024-03-06T08:28:48;5.53;;;4.37;;
9166;SDS011;4618;48.818;9.088;2024-03-06T08:31:14;5.50;;;4.77;;
9166;SDS011;4618;48.818;9.088;2024-03-06T08:33:40;7.20;;;4.93;;
9166;SDS011;4618;48.818;9.088;2024-03-06T08:36:07;6.63;;;4.87;;
9166;SDS011;4618;48.818;9.088;2024-03-06T08:38:33;7.50;;;5.17;;
9166;SDS011;4618;48.818;9.088;2024-03-06T08:40:59;7.40;;;4.93;;
9166;SDS011;4618;48.818;9.088;2024-03-06T08:43:25;4.87;;;4.27;;
9166;SDS011;4618;48.818;9.088;2024-03-06T08:45:51;5.80;;;4.60;;
9166;SDS011;4618;48.818;9.088;2024-03-06T08:48:18;6.67;;;5.10;;
9166;SDS011;4618;48.818;9.088;2024-03-06T08:50:44;6.00;;;5.00;;
9166;SDS011;4618;48.818;9.088;2024-03-06T08:53:10;8.53;;;4.83;;
9166;SDS011;4618;48.818;9.088;2024-03-06T08:55:38;5.67;;;5.00;;
9166;SDS011;4618;48.818;9.088;2024-03-06T08:58:04;7.63;;;5.73;;
9166;SDS011;4618;48.818;9.088;2024-03-06T09:00:33;6.10;;;5.40;;
9166;SDS011;4618;48.818;9.088;2024-03-06T09:03:02;5.57;;;5.03;;
9166;SDS011;4618;48.818;9.088;2024-03-06T09:05:28;7.53;;;5.83;;
9166;SDS011;4618;48.818;9.088;2024-03-06T09:07:54;6.50;;;5.43;;
9166;SDS011;4618;48.818;9.088;2024-03-06T09:10:22;5.80;;;5.20;;
9166;SDS011;4618;48.818;9.088;2024-03-06T09:12:54;5.17;;;4.60;;
9166;SDS011;4618;48.818;9.088;2024-03-06T09:15:22;5.30;;;4.80;;
9166;SDS011;4618;48.818;9.088;2024-03-06T09:17:49;6.97;;;5.40;;
9166;SDS011;4618;48.818;9.088;2024-03-06T09:20:15;7.63;;;5.00;;
9166;SDS011;4618;48.818;9.088;2024-03-06T09:22:42;5.10;;;4.63;;
9166;SDS011;4618;48.818;9.088;2024-03-06T09:25:12;7.50;;;5.20;;
9166;SDS011;4618;48.818;9.088;2024-03-06T09:27:38;7.50;;;5.13;;
9166;SDS011;4618;48.818;9.088;2024-03-06T09:30:05;7.27;;;5.33;;
9166;SDS011;4618;48.818;9.088;2024-03-06T09:32:31;6.47;;;5.73;;
9166;SDS011;4618;48.818;9.088;2024-03-06T09:34:58;7.53;;;5.53;;
9166;SDS011;4618;48.818;9.088;2024-03-06T09:37:26;8.20;;;6.10;;
9166;SDS011;4618;48.818;9.088;2024-03-06T09:39:52;7.00;;;6.30;;
9166;SDS011;4618;48.818;9.088;2024-03-06T09:42:18;7.60;;;6.90;;
9166;SDS011;4618;48.818;9.088;2024-03-06T09:44:44;8.67;;;7.17;;
9166;SDS011;4618;48.818;9.088;2024-03-06T09:47:13;8.60;;;7.67;;
9166;SDS011;4618;48.818;9.088;2024-03-06T09:49:40;9.33;;;8.33;;
9166;SDS011;4618;48.818;9.088;2024-03-06T09:52:09;10.03;;;8.33;;
9166;SDS011;4618;48.818;9.088;2024-03-06T09:54:35;10.33;;;9.03;;
9166;SDS011;4618;48.818;9.088;2024-03-06T09:57:06;9.77;;;8.77;;
9166;SDS011;4618;48.818;9.088;2024-03-06T09:59:32;9.80;;;8.60;;
9166;SDS011;4618;48.818;9.088;2024-03-06T10:01:59;10.53;;;8.97;;
9166;SDS011;4618;48.818;9.088;2024-03-06T10:04:32;9.27;;;8.37;;
9166;SDS011;4618;48.818;9.088;2024-03-06T10:07:02;9.03;;;8.10;;
9166;SDS011;4618;48.818;9.088;2024-03-06T10:09:29;10.27;;;9.27;;
9166;SDS011;4618;48.818;9.088;2024-03-06T10:11:57;10.60;;;9.50;;
9166;SDS011;4618;48.818;9.088;2024-03-06T10:14:24;9.77;;;8.47;;
9166;SDS011;4618;48.818;9.088;2024-03-06T10:16:54;11.03;;;9.13;;
9166;SDS011;4618;48.818;9.088;2024-03-06T10:19:21;10.50;;;9.50;;
9166;SDS011;4618;48.818;9.088;2024-03-06T10:21:48;11.73;;;10.63;;
9166;SDS011;4618;48.818;9.088;2024-03-06T10:24:19;11.33;;;10.23;;
9166;SDS011;4618;48.818;9.088;2024-03-06T10:26:46;14.43;;;11.13;;
9166;SDS011;4618;48.818;9.088;2024-03-06T10:29:15;13.87;;;11.73;;
9166;SDS011;4618;48.818;9.088;2024-03-06T10:34:23;13.70;;;12.40;;
9166;SDS011;4618;48.818;9.088;2024-03-06T10:37:05;15.10;;;13.47;;
9166;SDS011;4618;48.818;9.088;2024-03-06T10:39:34;15.23;;;13.73;;
9166;SDS011;4618;48.818;9.088;2024-03-06T10:44:52;16.37;;;14.80;;
9166;SDS011;4618;48.818;9.088;2024-03-06T10:47:21;16.90;;;14.23;;
9166;SDS011;4618;48.818;9.088;2024-03-06T10:49:48;15.77;;;14.07;;
9166;SDS011;4618;48.818;9.088;2024-03-06T10:52:15;17.57;;;15.73;;
9166;SDS011;4618;48.818;9.088;2024-03-06T10:54:41;17.63;;;15.30;;
9166;SDS011;4618;48.818;9.088;2024-03-06T10:57:11;16.80;;;14.77;;
9166;SDS011;4618;48.818;9.088;2024-03-06T10:59:37;17.93;;;16.10;;
9166;SDS011;4618;48.818;9.088;2024-03-06T11:02:03;19.70;;;16.63;;
9166;SDS011;4618;48.818;9.088;2024-03-06T11:04:30;18.63;;;16.07;;
9166;SDS011;4618;48.818;9.088;2024-03-06T11:06:59;19.70;;;17.20;;
9166;SDS011;4618;48.818;9.088;2024-03-06T11:09:26;20.57;;;18.53;;
9166;SDS011;4618;48.818;9.088;2024-03-06T11:11:53;21.60;;;19.27;;
9166;SDS011;4618;48.818;9.088;2024-03-06T11:14:23;20.57;;;18.40;;
9166;SDS011;4618;48.818;9.088;2024-03-06T11:17:10;20.93;;;18.67;;
9166;SDS011;4618;48.818;9.088;2024-03-06T11:25:07;21.53;;;18.97;;
9166;SDS011;4618;48.818;9.088;2024-03-06T11:28:02;21.77;;;19.50;;
9166;SDS011;4618;48.818;9.088;2024-03-06T11:30:22;25.13;;;19.97;;
9166;SDS011;4618;48.818;9.088;2024-03-06T11:32:58;23.57;;;20.23;;
9166;SDS011;4618;48.818;9.088;2024-03-06T11:35:27;22.23;;;19.83;;
9166;SDS011;4618;48.818;9.088;2024-03-06T11:37:53;22.90;;;20.47;;
9166;SDS011;4618;48.818;9.088;2024-03-06T11:40:23;21.87;;;19.20;;
9166;SDS011;4618;48.818;9.088;2024-03-06T11:42:49;22.73;;;19.70;;
9166;SDS011;4618;48.818;9.088;2024-03-06T11:45:19;21.73;;;18.97;;
9166;SDS011;4618;48.818;9.088;2024-03-06T11:48:00;23.90;;;20.87;;
9166;SDS011;4618;48.818;9.088;2024-03-06T11:50:27;24.97;;;22.37;;
9166;SDS011;4618;48.818;9.088;2024-03-06T11:53:02;23.50;;;20.77;;
9166;SDS011;4618;48.818;9.088;2024-03-06T11:55:30;23.83;;;21.33;;
9166;SDS011;4618;48.818;9.088;2024-03-06T11:57:56;22.93;;;20.53;;
9166;SDS011;4618;48.818;9.088;2024-03-06T12:00:25;23.00;;;20.43;;
9166;SDS011;4618;48.818;9.088;2024-03-06T12:02:51;22.97;;;20.40;;
9166;SDS011;4618;48.818;9.088;2024-03-06T12:05:25;25.20;;;22.50;;
9166;SDS011;4618;48.818;9.088;2024-03-06T12:07:53;27.93;;;22.97;;
9166;SDS011;4618;48.818;9.088;2024-03-06T12:10:19;28.73;;;24.17;;
9166;SDS011;4618;48.818;9.088;2024-03-06T12:12:45;25.67;;;22.83;;
9166;SDS011;4618;48.818;9.088;2024-03-06T12:15:12;26.40;;;23.60;;
9166;SDS011;4618;48.818;9.088;2024-03-06T12:17:44;26.43;;;23.47;;
9166;SDS011;4618;48.818;9.088;2024-03-06T12:20:15;26.87;;;24.10;;
9166;SDS011;4618;48.818;9.088;2024-03-06T12:22:48;26.97;;;24.13;;
9166;SDS011;4618;48.818;9.088;2024-03-06T12:25:21;27.53;;;24.60;;
9166;SDS011;4618;48.818;9.088;2024-03-06T12:27:47;25.17;;;22.57;;
9166;SDS011;4618;48.818;9.088;2024-03-06T12:30:17;23.87;;;21.30;;
9166;SDS011;4618;48.818;9.088;2024-03-06T12:32:44;24.87;;;22.23;;
9166;SDS011;4618;48.818;9.088;2024-03-06T12:35:10;24.37;;;21.77;;
9166;SDS011;4618;48.818;9.088;2024-03-06T12:37:37;25.33;;;21.40;;
9166;SDS011;4618;48.818;9.088;2024-03-06T12:40:05;25.17;;;22.20;;
9166;SDS011;4618;48.818;9.088;2024-03-06T12:42:42;24.40;;;21.50;;
9166;SDS011;4618;48.818;9.088;2024-03-06T12:45:11;22.47;;;20.17;;
9166;SDS011;4618;48.818;9.088;2024-03-06T12:47:41;23.27;;;20.73;;
9166;SDS011;4618;48.818;9.088;2024-03-06T12:50:08;23.47;;;20.97;;
9166;SDS011;4618;48.818;9.088;2024-03-06T12:52:44;22.40;;;20.10;;
9166;SDS011;4618;48.818;9.088;2024-03-06T12:55:10;22.77;;;20.33;;
9166;SDS011;4618;48.818;9.088;2024-03-06T12:57:37;21.73;;;19.43;;
9166;SDS011;4618;48.818;9.088;2024-03-06T13:00:03;21.77;;;19.17;;
9166;SDS011;4618;48.818;9.088;2024-03-06T13:02:32;20.83;;;18.73;;
9166;SDS011;4618;48.818;9.088;2024-03-06T13:05:01;20.17;;;18.00;;
9166;SDS011;4618;48.818;9.088;2024-03-06T13:07:29;20.00;;;18.00;;
9166;SDS011;4618;48.818;9.088;2024-03-06T13:10:01;21.37;;;17.97;;
9166;SDS011;4618;48.818;9.088;2024-03-06T13:12:27;19.73;;;17.70;;
9166;SDS011;4618;48.818;9.088;2024-03-06T13:14:53;20.60;;;18.47;;
9166;SDS011;4618;48.818;9.088;2024-03-06T13:17:19;19.67;;;17.70;;
9166;SDS011;4618;48.818;9.088;2024-03-06T13:19:46;19.67;;;17.77;;
9166;SDS011;4618;48.818;9.088;2024-03-06T13:22:14;21.40;;;19.10;;
9166;SDS011;4618;48.818;9.088;2024-03-06T13:24:40;19.87;;;17.97;;
9166;SDS011;4618;48.818;9.088;2024-03-06T13:27:07;20.90;;;18.80;;
9166;SDS011;4618;48.818;9.088;2024-03-06T13:29:38;22.70;;;20.30;;
9166;SDS011;4618;48.818;9.088;2024-03-06T13:32:07;20.77;;;18.67;;
9166;SDS011;4618;48.818;9.088;2024-03-06T13:34:34;23.00;;;20.70;;
9166;SDS011;4618;48.818;9.088;2024-03-06T13:37:00;22.93;;;20.70;;
9166;SDS011;4618;48.818;9.088;2024-03-06T13:39:26;22.17;;;19.87;;
9166;SDS011;4618;48.818;9.088;2024-03-06T13:41:53;22.97;;;20.60;;
9166;SDS011;4618;48.818;9.088;2024-03-06T13:44:19;23.43;;;21.07;;
9166;SDS011;4618;48.818;9.088;2024-03-06T13:46:49;22.43;;;20.07;;
9166;SDS011;4618;48.818;9.088;2024-03-06T13:49:34;22.43;;;20.13;;
9166;SDS011;4618;48.818;9.088;2024-03-06T13:52:00;23.77;;;21.23;;
9166;SDS011;4618;48.818;9.088;2024-03-06T13:54:41;22.57;;;20.30;;
9166;SDS011;4618;48.818;9.088;2024-03-06T13:57:08;21.77;;;19.57;;
9166;SDS011;4618;48.818;9.088;2024-03-06T13:59:37;22.73;;;20.47;;
9166;SDS011;4618;48.818;9.088;2024-03-06T14:02:07;22.33;;;20.03;;
9166;SDS011;4618;48.818;9.088;2024-03-06T14:04:36;23.00;;;20.60;;
9166;SDS011;4618;48.818;9.088;2024-03-06T14:07:02;22.13;;;20.03;;
9166;SDS011;4618;48.818;9.088;2024-03-06T14:09:28;23.10;;;20.80;;
9166;SDS011;4618;48.818;9.088;2024-03-06T14:11:55;22.30;;;20.20;;
9166;SDS011;4618;48.818;9.088;2024-03-06T14:14:21;22.73;;;20.40;;
9166;SDS011;4618;48.818;9.088;2024-03-06T14:16:47;23.43;;;21.23;;
9166;SDS011;4618;48.818;9.088;2024-03-06T14:19:13;22.57;;;20.30;;
9166;SDS011;4618;48.818;9.088;2024-03-06T14:21:39;22.67;;;20.33;;
9166;SDS011;4618;48.818;9.088;2024-03-06T14:24:05;25.60;;;21.83;;
9166;SDS011;4618;48.818;9.088;2024-03-06T14:26:32;23.73;;;21.27;;
9166;SDS011;4618;48.818;9.088;2024-03-06T14:28:58;22.20;;;19.90;;
9166;SDS011;4618;48.818;9.088;2024-03-06T14:31:24;24.23;;;21.73;;
9166;SDS011;4618;48.818;9.088;2024-03-06T14:33:51;23.53;;;21.03;;
9166;SDS011;4618;48.818;9.088;2024-03-06T14:36:17;24.03;;;21.57;;
9166;SDS011;4618;48.818;9.088;2024-03-06T14:38:43;21.87;;;19.60;;
9166;SDS011;4618;48.818;9.088;2024-03-06T14:41:10;23.83;;;20.87;;
9166;SDS011;4618;48.818;9.088;2024-03-06T14:43:36;25.20;;;20.80;;
9166;SDS011;4618;48.818;9.088;2024-03-06T14:46:06;24.20;;;21.50;;
9166;SDS011;4618;48.818;9.088;2024-03-06T14:48:33;26.10;;;21.77;;
9166;SDS011;4618;48.818;9.088;2024-03-06T14:51:02;24.10;;;21.50;;
9166;SDS011;4618;48.818;9.088;2024-03-06T14:53:29;24.13;;;21.53;;
9166;SDS011;4618;48.818;9.088;2024-03-06T14:55:58;24.60;;;22.10;;
9166;SDS011;4618;48.818;9.088;2024-03-06T14:58:24;27.43;;;23.03;;
9166;SDS011;4618;48.818;9.088;2024-03-06T15:00:50;26.17;;;22.63;;
9166;SDS011;4618;48.818;9.088;2024-03-06T15:03:17;24.77;;;21.97;;
9166;SDS011;4618;48.818;9.088;2024-03-06T15:05:43;26.03;;;23.23;;
9166;SDS011;4618;48.818;9.088;2024-03-06T15:08:10;26.47;;;23.67;;
9166;SDS011;4618;48.818;9.088;2024-03-06T15:10:36;24.07;;;21.63;;
9166;SDS011;4618;48.818;9.088;2024-03-06T15:13:02;26.70;;;23.07;;
9166;SDS011;4618;48.818;9.088;2024-03-06T15:15:28;25.70;;;22.67;;
9166;SDS011;4618;48.818;9.088;2024-03-06T15:17:56;26.13;;;23.30;;
9166;SDS011;4618;48.818;9.088;2024-03-06T15:20:22;26.30;;;23.50;;
9166;SDS011;4618;48.818;9.088;2024-03-06T15:22:48;28.07;;;24.60;;
9166;SDS011;4618;48.818;9.088;2024-03-06T15:25:14;28.17;;;23.90;;
9166;SDS011;4618;48.818;9.088;2024-03-06T15:27:40;27.70;;;22.87;;
9166;SDS011;4618;48.818;9.088;2024-03-06T15:30:10;26.70;;;22.97;;
9166;SDS011;4618;48.818;9.088;2024-03-06T15:32:36;27.70;;;24.33;;
9166;SDS011;4618;48.818;9.088;2024-03-06T15:35:03;25.70;;;22.90;;
9166;SDS011;4618;48.818;9.088;2024-03-06T15:37:30;27.67;;;23.00;;
9166;SDS011;4618;48.818;9.088;2024-03-06T15:39:57;31.03;;;23.90;;
9166;SDS011;4618;48.818;9.088;2024-03-06T15:42:23;27.27;;;24.37;;
9166;SDS011;4618;48.818;9.088;2024-03-06T15:44:53;26.97;;;23.63;;
9166;SDS011;4618;48.818;9.088;2024-03-06T15:47:19;32.00;;;25.17;;
9166;SDS011;4618;48.818;9.088;2024-03-06T15:49:46;28.17;;;24.07;;
9166;SDS011;4618;48.818;9.088;2024-03-06T15:52:12;30.07;;;24.27;;
9166;SDS011;4618;48.818;9.088;2024-03-06T15:54:39;27.10;;;24.03;;
9166;SDS011;4618;48.818;9.088;2024-03-06T15:57:08;31.93;;;26.43;;
9166;SDS011;4618;48.818;9.088;2024-03-06T15:59:40;30.63;;;25.13;;
9166;SDS011;4618;48.818;9.088;2024-03-06T16:02:07;31.83;;;26.40;;
9166;SDS011;4618;48.818;9.088;2024-03-06T16:04:33;30.77;;;26.10;;
9166;SDS011;4618;48.818;9.088;2024-03-06T16:06:59;31.63;;;26.70;;
9166;SDS011;4618;48.818;9.088;2024-03-06T16:09:29;33.73;;;26.77;;
9166;SDS011;4618;48.818;9.088;2024-03-06T16:11:55;34.30;;;27.23;;
9166;SDS011;4618;48.818;9.088;2024-03-06T16:14:23;33.97;;;27.03;;
9166;SDS011;4618;48.818;9.088;2024-03-06T16:16:50;36.93;;;28.27;;
9166;SDS011;4618;48.818;9.088;2024-03-06T16:19:16;35.13;;;28.60;;
9166;SDS011;4618;48.818;9.088;2024-03-06T16:21:42;34.63;;;28.83;;
9166;SDS011;4618;48.818;9.088;2024-03-06T16:24:08;37.77;;;29.13;;
9166;SDS011;4618;48.818;9.088;2024-03-06T16:26:34;37.80;;;29.00;;
9166;SDS011;4618;48.818;9.088;2024-03-06T16:29:04;35.07;;;28.90;;
9166;SDS011;4618;48.818;9.088;2024-03-06T16:31:30;37.00;;;29.80;;
9166;SDS011;4618;48.818;9.088;2024-03-06T16:33:56;38.97;;;30.47;;
9166;SDS011;4618;48.818;9.088;2024-03-06T16:36:22;38.40;;;30.57;;
9166;SDS011;4618;48.818;9.088;2024-03-06T16:38:49;36.93;;;28.83;;
9166;SDS011;4618;48.818;9.088;2024-03-06T16:41:15;38.10;;;28.77;;
9166;SDS011;4618;48.818;9.088;2024-03-06T16:43:41;37.03;;;28.47;;
9166;SDS011;4618;48.818;9.088;2024-03-06T16:46:07;37.37;;;29.70;;
9166;SDS011;4618;48.818;9.088;2024-03-06T16:48:34;33.60;;;28.63;;
9166;SDS011;4618;48.818;9.088;2024-03-06T16:51:01;34.50;;;28.60;;
9166;SDS011;4618;48.818;9.088;2024-03-06T16:53:28;35.30;;;29.20;;
9166;SDS011;4618;48.818;9.088;2024-03-06T16:55:57;35.90;;;29.17;;
9166;SDS011;4618;48.818;9.088;2024-03-06T16:58:23;34.53;;;28.23;;
9166;SDS011;4618;48.818;9.088;2024-03-06T17:00:49;36.17;;;28.00;;
9166;SDS011;4618;48.818;9.088;2024-03-06T17:03:15;35.30;;;29.23;;
9166;SDS011;4618;48.818;9.088;2024-03-06T17:05:42;36.10;;;28.40;;
9166;SDS011;4618;48.818;9.088;2024-03-06T17:08:08;33.77;;;27.70;;
9166;SDS011;4618;48.818;9.088;2024-03-06T17:10:33;34.53;;;27.87;;
9166;SDS011;4618;48.818;9.088;2024-03-06T17:13:00;35.47;;;28.40;;
9166;SDS011;4618;48.818;9.088;2024-03-06T17:15:26;35.07;;;27.93;;
9166;SDS011;4618;48.818;9.088;2024-03-06T17:17:52;35.57;;;28.33;;
9166;SDS011;4618;48.818;9.088;2024-03-06T17:20:18;33.37;;;27.43;;
9166;SDS011;4618;48.818;9.088;2024-03-06T17:22:45;33.57;;;27.67;;
9166;SDS011;4618;48.818;9.088;2024-03-06T17:25:11;32.73;;;25.77;;
9166;SDS011;4618;48.818;9.088;2024-03-06T17:27:37;34.13;;;26.97;;
9166;SDS011;4618;48.818;9.088;2024-03-06T17:30:03;30.73;;;27.00;;
9166;SDS011;4618;48.818;9.088;2024-03-06T17:32:30;29.63;;;26.40;;
9166;SDS011;4618;48.818;9.088;2024-03-06T17:34:57;30.83;;;26.17;;
9166;SDS011;4618;48.818;9.088;2024-03-06T17:37:23;30.77;;;25.87;;
9166;SDS011;4618;48.818;9.088;2024-03-06T17:39:49;33.07;;;27.00;;
9166;SDS011;4618;48.818;9.088;2024-03-06T17:42:16;32.77;;;26.73;;
9166;SDS011;4618;48.818;9.088;2024-03-06T17:44:42;34.80;;;28.53;;
9166;SDS011;4618;48.818;9.088;2024-03-06T17:47:08;30.47;;;26.50;;
9166;SDS011;4618;48.818;9.088;2024-03-06T17:49:36;35.30;;;26.43;;
9166;SDS011;4618;48.818;9.088;2024-03-06T17:52:03;33.87;;;27.47;;
9166;SDS011;4618;48.818;9.088;2024-03-06T17:54:29;34.00;;;26.67;;
9166;SDS011;4618;48.818;9.088;2024-03-06T17:56:56;29.83;;;25.70;;
9166;SDS011;4618;48.818;9.088;2024-03-06T17:59:23;32.03;;;26.93;;
9166;SDS011;4618;48.818;9.088;2024-03-06T18:01:51;29.10;;;25.20;;
9166;SDS011;4618;48.818;9.088;2024-03-06T18:04:17;31.17;;;25.17;;